sensor_id;sensor_type;location;lat;lon;timestamp;P1;durP1;ratioP1;P2;durP2;ratioP2
16820;SDS011;8527;49.740;6.604;2024-02-23T00:04:45;5.03;;;0.60;;
16820;SDS011;8527;49.740;6.604;2024-02-23T00:09:47;2.85;;;0.75;;
16820;SDS011;8527;49.740;6.604;2024-02-23T00:14:48;2.63;;;0.82;;
16820;SDS011;8527;49.740;6.604;2024-02-23T00:19:49;2.10;;;0.52;;
16820;SDS011;8527;49.740;6.604;2024-02-23T00:24:54;5.57;;;0.60;;
16820;SDS011;8527;49.740;6.604;2024-02-23T00:29:58;9.23;;;1.10;;
16820;SDS011;8527;49.740;6.604;2024-02-23T00:35:00;3.60;;;0.77;;
16820;SDS011;8527;49.740;6.604;2024-02-23T00:40:01;2.72;;;0.57;;
16820;SDS011;8527;49.740;6.604;2024-02-23T00:45:04;4.72;;;0.70;;
16820;SDS011;8527;49.740;6.604;2024-02-23T00:50:06;2.17;;;0.60;;
16820;SDS011;8527;49.740;6.604;2024-02-23T00:55:08;3.05;;;0.70;;
16820;SDS011;8527;49.740;6.604;2024-02-23T01:00:18;4.32;;;0.88;;
16820;SDS011;8527;49.740;6.604;2024-02-23T01:05:19;4.40;;;0.93;;
16820;SDS011;8527;49.740;6.604;2024-02-23T01:10:20;3.30;;;0.88;;
16820;SDS011;8527;49.740;6.604;2024-02-23T01:15:23;5.57;;;1.02;;
16820;SDS011;8527;49.740;6.604;2024-02-23T01:20:23;5.82;;;1.13;;
16820;SDS011;8527;49.740;6.604;2024-02-23T01:25:24;7.22;;;0.85;;
16820;SDS011;8527;49.740;6.604;2024-02-23T01:30:23;3.20;;;0.88;;
16820;SDS011;8527;49.740;6.604;2024-02-23T01:35:26;5.15;;;1.38;;
16820;SDS011;8527;49.740;6.604;2024-02-23T01:40:34;6.60;;;1.10;;
16820;SDS011;8527;49.740;6.604;2024-02-23T01:45:37;2.45;;;0.70;;
16820;SDS011;8527;49.740;6.604;2024-02-23T01:50:37;6.68;;;1.20;;
16820;SDS011;8527;49.740;6.604;2024-02-23T01:55:39;5.90;;;1.35;;
16820;SDS011;8527;49.740;6.604;2024-02-23T02:00:39;4.07;;;0.90;;
16820;SDS011;8527;49.740;6.604;2024-02-23T02:05:38;2.80;;;1.00;;
16820;SDS011;8527;49.740;6.604;2024-02-23T02:10:39;5.20;;;1.67;;
16820;SDS011;8527;49.740;6.604;2024-02-23T02:15:39;6.57;;;1.42;;
16820;SDS011;8527;49.740;6.604;2024-02-23T02:20:44;4.35;;;0.80;;
16820;SDS011;8527;49.740;6.604;2024-02-23T02:25:58;5.43;;;1.08;;
16820;SDS011;8527;49.740;6.604;2024-02-23T02:31:00;3.80;;;0.98;;
16820;SDS011;8527;49.740;6.604;2024-02-23T02:35:58;6.07;;;1.13;;
16820;SDS011;8527;49.740;6.604;2024-02-23T02:41:02;3.83;;;0.80;;
16820;SDS011;8527;49.740;6.604;2024-02-23T02:46:03;2.83;;;0.35;;
16820;SDS011;8527;49.740;6.604;2024-02-23T02:51:05;3.30;;;0.93;;
16820;SDS011;8527;49.740;6.604;2024-02-23T02:56:08;4.35;;;0.85;;
16820;SDS011;8527;49.740;6.604;2024-02-23T03:01:06;4.47;;;0.90;;
16820;SDS011;8527;49.740;6.604;2024-02-23T03:06:07;5.88;;;0.90;;
16820;SDS011;8527;49.740;6.604;2024-02-23T03:11:08;1.65;;;0.70;;
16820;SDS011;8527;49.740;6.604;2024-02-23T03:16:14;5.13;;;1.00;;
16820;SDS011;8527;49.740;6.604;2024-02-23T03:21:13;4.20;;;0.70;;
16820;SDS011;8527;49.740;6.604;2024-02-23T03:26:15;4.03;;;0.85;;
16820;SDS011;8527;49.740;6.604;2024-02-23T03:31:14;5.03;;;1.00;;
16820;SDS011;8527;49.740;6.604;2024-02-23T03:36:13;4.60;;;0.80;;
16820;SDS011;8527;49.740;6.604;2024-02-23T03:41:19;2.33;;;0.93;;
16820;SDS011;8527;49.740;6.604;2024-02-23T03:46:21;6.07;;;0.85;;
16820;SDS011;8527;49.740;6.604;2024-02-23T03:51:19;7.65;;;0.95;;
16820;SDS011;8527;49.740;6.604;2024-02-23T03:56:21;7.05;;;1.35;;
16820;SDS011;8527;49.740;6.604;2024-02-23T04:01:23;6.07;;;1.13;;
16820;SDS011;8527;49.740;6.604;2024-02-23T04:06:22;3.30;;;1.05;;
16820;SDS011;8527;49.740;6.604;2024-02-23T04:11:30;6.03;;;1.10;;
16820;SDS011;8527;49.740;6.604;2024-02-23T04:16:32;4.47;;;1.02;;
16820;SDS011;8527;49.740;6.604;2024-02-23T04:21:34;4.90;;;0.90;;
16820;SDS011;8527;49.740;6.604;2024-02-23T04:26:35;3.63;;;0.95;;
16820;SDS011;8527;49.740;6.604;2024-02-23T04:31:43;3.17;;;0.73;;
16820;SDS011;8527;49.740;6.604;2024-02-23T04:36:43;6.65;;;1.13;;
16820;SDS011;8527;49.740;6.604;2024-02-23T04:41:46;6.90;;;1.08;;
16820;SDS011;8527;49.740;6.604;2024-02-23T04:46:51;9.93;;;1.30;;
16820;SDS011;8527;49.740;6.604;2024-02-23T04:51:50;4.57;;;1.17;;
16820;SDS011;8527;49.740;6.604;2024-02-23T04:56:51;3.22;;;1.17;;
16820;SDS011;8527;49.740;6.604;2024-02-23T05:01:49;5.57;;;1.20;;
16820;SDS011;8527;49.740;6.604;2024-02-23T05:06:48;3.88;;;1.45;;
16820;SDS011;8527;49.740;6.604;2024-02-23T05:11:46;6.10;;;2.30;;
16820;SDS011;8527;49.740;6.604;2024-02-23T05:16:47;4.95;;;1.05;;
16820;SDS011;8527;49.740;6.604;2024-02-23T05:21:51;10.30;;;1.77;;
16820;SDS011;8527;49.740;6.604;2024-02-23T05:26:52;5.22;;;1.38;;
16820;SDS011;8527;49.740;6.604;2024-02-23T05:31:57;3.35;;;0.80;;
16820;SDS011;8527;49.740;6.604;2024-02-23T05:36:57;7.18;;;1.13;;
16820;SDS011;8527;49.740;6.604;2024-02-23T05:42:02;4.15;;;1.02;;
16820;SDS011;8527;49.740;6.604;2024-02-23T05:47:07;6.80;;;1.40;;
16820;SDS011;8527;49.740;6.604;2024-02-23T05:52:08;3.75;;;1.08;;
16820;SDS011;8527;49.740;6.604;2024-02-23T05:57:10;5.93;;;1.30;;
16820;SDS011;8527;49.740;6.604;2024-02-23T06:02:11;5.68;;;1.10;;
16820;SDS011;8527;49.740;6.604;2024-02-23T06:07:11;4.85;;;1.40;;
16820;SDS011;8527;49.740;6.604;2024-02-23T06:12:10;5.65;;;1.25;;
16820;SDS011;8527;49.740;6.604;2024-02-23T06:17:11;7.85;;;1.45;;
16820;SDS011;8527;49.740;6.604;2024-02-23T06:22:18;4.40;;;1.00;;
16820;SDS011;8527;49.740;6.604;2024-02-23T06:27:17;4.97;;;0.88;;
16820;SDS011;8527;49.740;6.604;2024-02-23T06:32:20;5.00;;;1.73;;
16820;SDS011;8527;49.740;6.604;2024-02-23T06:37:20;5.97;;;1.30;;
16820;SDS011;8527;49.740;6.604;2024-02-23T06:42:19;9.10;;;1.67;;
16820;SDS011;8527;49.740;6.604;2024-02-23T06:47:19;3.88;;;1.27;;
16820;SDS011;8527;49.740;6.604;2024-02-23T06:52:21;8.70;;;1.33;;
16820;SDS011;8527;49.740;6.604;2024-02-23T06:57:21;8.88;;;1.83;;
16820;SDS011;8527;49.740;6.604;2024-02-23T07:07:31;10.85;;;1.80;;
16820;SDS011;8527;49.740;6.604;2024-02-23T07:12:30;5.82;;;2.15;;
16820;SDS011;8527;49.740;6.604;2024-02-23T07:17:31;5.75;;;1.58;;
16820;SDS011;8527;49.740;6.604;2024-02-23T07:22:35;5.18;;;1.88;;
16820;SDS011;8527;49.740;6.604;2024-02-23T07:27:36;8.60;;;2.05;;
16820;SDS011;8527;49.740;6.604;2024-02-23T07:32:43;8.43;;;1.52;;
16820;SDS011;8527;49.740;6.604;2024-02-23T07:37:44;4.85;;;1.50;;
16820;SDS011;8527;49.740;6.604;2024-02-23T07:42:44;6.80;;;1.65;;
16820;SDS011;8527;49.740;6.604;2024-02-23T07:47:48;9.55;;;2.30;;
16820;SDS011;8527;49.740;6.604;2024-02-23T07:52:49;7.15;;;1.80;;
16820;SDS011;8527;49.740;6.604;2024-02-23T07:57:50;8.73;;;2.08;;
16820;SDS011;8527;49.740;6.604;2024-02-23T08:02:55;11.43;;;2.42;;
16820;SDS011;8527;49.740;6.604;2024-02-23T08:07:57;8.32;;;1.92;;
16820;SDS011;8527;49.740;6.604;2024-02-23T08:12:58;7.97;;;1.63;;
16820;SDS011;8527;49.740;6.604;2024-02-23T08:18:08;4.25;;;1.25;;
16820;SDS011;8527;49.740;6.604;2024-02-23T08:23:07;8.75;;;1.65;;
16820;SDS011;8527;49.740;6.604;2024-02-23T08:28:07;5.97;;;1.67;;
16820;SDS011;8527;49.740;6.604;2024-02-23T08:33:11;5.43;;;1.15;;
16820;SDS011;8527;49.740;6.604;2024-02-23T08:38:13;7.38;;;1.40;;
16820;SDS011;8527;49.740;6.604;2024-02-23T08:43:13;6.50;;;1.30;;
16820;SDS011;8527;49.740;6.604;2024-02-23T08:48:17;7.00;;;1.58;;
16820;SDS011;8527;49.740;6.604;2024-02-23T08:53:17;8.77;;;1.92;;
16820;SDS011;8527;49.740;6.604;2024-02-23T08:58:15;9.82;;;2.00;;
16820;SDS011;8527;49.740;6.604;2024-02-23T09:03:19;5.57;;;1.13;;
16820;SDS011;8527;49.740;6.604;2024-02-23T09:08:17;11.45;;;1.85;;
16820;SDS011;8527;49.740;6.604;2024-02-23T09:13:19;7.20;;;1.45;;
16820;SDS011;8527;49.740;6.604;2024-02-23T09:18:20;5.50;;;1.25;;
16820;SDS011;8527;49.740;6.604;2024-02-23T09:23:18;7.35;;;1.40;;
16820;SDS011;8527;49.740;6.604;2024-02-23T09:28:16;5.03;;;1.23;;
16820;SDS011;8527;49.740;6.604;2024-02-23T09:33:24;9.38;;;1.80;;
16820;SDS011;8527;49.740;6.604;2024-02-23T09:38:25;6.95;;;1.55;;
16820;SDS011;8527;49.740;6.604;2024-02-23T09:43:23;9.77;;;1.50;;
16820;SDS011;8527;49.740;6.604;2024-02-23T09:48:29;9.25;;;1.17;;
16820;SDS011;8527;49.740;6.604;2024-02-23T09:53:30;4.50;;;1.27;;
16820;SDS011;8527;49.740;6.604;2024-02-23T09:58:30;5.97;;;1.35;;
16820;SDS011;8527;49.740;6.604;2024-02-23T10:03:32;7.47;;;1.73;;
16820;SDS011;8527;49.740;6.604;2024-02-23T10:08:33;8.23;;;1.80;;
16820;SDS011;8527;49.740;6.604;2024-02-23T10:13:31;7.35;;;1.40;;
16820;SDS011;8527;49.740;6.604;2024-02-23T10:18:33;6.88;;;1.30;;
16820;SDS011;8527;49.740;6.604;2024-02-23T10:23:31;4.57;;;1.13;;
16820;SDS011;8527;49.740;6.604;2024-02-23T10:28:31;7.15;;;1.63;;
16820;SDS011;8527;49.740;6.604;2024-02-23T10:33:30;5.82;;;1.42;;
16820;SDS011;8527;49.740;6.604;2024-02-23T10:38:33;7.75;;;1.48;;
16820;SDS011;8527;49.740;6.604;2024-02-23T10:43:47;6.60;;;1.55;;
16820;SDS011;8527;49.740;6.604;2024-02-23T10:48:49;8.60;;;1.48;;
16820;SDS011;8527;49.740;6.604;2024-02-23T10:53:48;6.00;;;1.10;;
16820;SDS011;8527;49.740;6.604;2024-02-23T10:58:48;9.02;;;1.60;;
16820;SDS011;8527;49.740;6.604;2024-02-23T11:03:49;6.88;;;1.42;;
16820;SDS011;8527;49.740;6.604;2024-02-23T11:08:54;8.68;;;1.85;;
16820;SDS011;8527;49.740;6.604;2024-02-23T11:14:07;4.78;;;1.23;;
16820;SDS011;8527;49.740;6.604;2024-02-23T11:19:09;5.38;;;1.05;;
16820;SDS011;8527;49.740;6.604;2024-02-23T11:24:15;11.43;;;1.60;;
16820;SDS011;8527;49.740;6.604;2024-02-23T11:29:19;6.78;;;1.13;;
16820;SDS011;8527;49.740;6.604;2024-02-23T11:34:23;3.45;;;1.23;;
16820;SDS011;8527;49.740;6.604;2024-02-23T11:39:25;4.20;;;1.13;;
16820;SDS011;8527;49.740;6.604;2024-02-23T11:44:25;4.97;;;1.00;;
16820;SDS011;8527;49.740;6.604;2024-02-23T11:49:29;6.50;;;1.45;;
16820;SDS011;8527;49.740;6.604;2024-02-23T11:54:31;7.53;;;1.60;;
16820;SDS011;8527;49.740;6.604;2024-02-23T11:59:29;4.78;;;1.30;;
16820;SDS011;8527;49.740;6.604;2024-02-23T12:04:30;5.65;;;0.93;;
16820;SDS011;8527;49.740;6.604;2024-02-23T12:09:29;5.50;;;0.88;;
16820;SDS011;8527;49.740;6.604;2024-02-23T12:14:28;5.28;;;1.50;;
16820;SDS011;8527;49.740;6.604;2024-02-23T12:19:27;5.47;;;1.27;;
16820;SDS011;8527;49.740;6.604;2024-02-23T12:24:29;4.95;;;1.40;;
16820;SDS011;8527;49.740;6.604;2024-02-23T12:29:28;7.15;;;1.58;;
16820;SDS011;8527;49.740;6.604;2024-02-23T12:34:29;4.13;;;1.20;;
16820;SDS011;8527;49.740;6.604;2024-02-23T12:39:35;4.70;;;1.20;;
16820;SDS011;8527;49.740;6.604;2024-02-23T12:44:34;4.50;;;1.80;;
16820;SDS011;8527;49.740;6.604;2024-02-23T12:49:35;6.25;;;1.73;;
16820;SDS011;8527;49.740;6.604;2024-02-23T12:54:36;9.35;;;2.05;;
16820;SDS011;8527;49.740;6.604;2024-02-23T12:59:35;4.75;;;1.42;;
16820;SDS011;8527;49.740;6.604;2024-02-23T13:04:37;6.38;;;1.30;;
16820;SDS011;8527;49.740;6.604;2024-02-23T13:09:47;8.45;;;1.75;;
16820;SDS011;8527;49.740;6.604;2024-02-23T13:14:45;3.83;;;1.10;;
16820;SDS011;8527;49.740;6.604;2024-02-23T13:19:46;3.05;;;1.40;;
16820;SDS011;8527;49.740;6.604;2024-02-23T13:24:50;5.03;;;1.85;;
16820;SDS011;8527;49.740;6.604;2024-02-23T13:29:49;5.45;;;1.40;;
16820;SDS011;8527;49.740;6.604;2024-02-23T13:34:47;6.95;;;0.98;;
16820;SDS011;8527;49.740;6.604;2024-02-23T13:39:49;5.72;;;1.48;;
16820;SDS011;8527;49.740;6.604;2024-02-23T13:44:48;4.53;;;0.95;;
16820;SDS011;8527;49.740;6.604;2024-02-23T13:49:49;6.03;;;1.40;;
16820;SDS011;8527;49.740;6.604;2024-02-23T13:54:51;6.15;;;1.20;;
16820;SDS011;8527;49.740;6.604;2024-02-23T13:59:50;4.00;;;1.05;;
16820;SDS011;8527;49.740;6.604;2024-02-23T14:04:48;7.43;;;0.93;;
16820;SDS011;8527;49.740;6.604;2024-02-23T14:09:46;3.40;;;0.80;;
16820;SDS011;8527;49.740;6.604;2024-02-23T14:14:48;2.25;;;0.70;;
16820;SDS011;8527;49.740;6.604;2024-02-23T14:19:47;5.90;;;1.73;;
16820;SDS011;8527;49.740;6.604;2024-02-23T14:24:46;4.88;;;1.42;;
16820;SDS011;8527;49.740;6.604;2024-02-23T14:29:44;6.65;;;1.20;;
16820;SDS011;8527;49.740;6.604;2024-02-23T14:34:50;5.63;;;1.80;;
16820;SDS011;8527;49.740;6.604;2024-02-23T14:39:48;5.63;;;1.92;;
16820;SDS011;8527;49.740;6.604;2024-02-23T14:44:50;4.43;;;1.17;;
16820;SDS011;8527;49.740;6.604;2024-02-23T14:49:51;4.22;;;1.00;;
16820;SDS011;8527;49.740;6.604;2024-02-23T14:54:52;5.70;;;1.23;;
16820;SDS011;8527;49.740;6.604;2024-02-23T14:59:51;3.90;;;1.27;;
16820;SDS011;8527;49.740;6.604;2024-02-23T15:04:52;3.17;;;1.75;;
16820;SDS011;8527;49.740;6.604;2024-02-23T15:09:51;4.90;;;1.08;;
16820;SDS011;8527;49.740;6.604;2024-02-23T15:14:49;4.00;;;1.52;;
16820;SDS011;8527;49.740;6.604;2024-02-23T15:19:50;5.95;;;1.35;;
16820;SDS011;8527;49.740;6.604;2024-02-23T15:24:57;4.43;;;1.00;;
16820;SDS011;8527;49.740;6.604;2024-02-23T15:30:04;5.77;;;1.30;;
16820;SDS011;8527;49.740;6.604;2024-02-23T15:35:08;3.55;;;1.10;;
16820;SDS011;8527;49.740;6.604;2024-02-23T15:40:11;4.78;;;0.80;;
16820;SDS011;8527;49.740;6.604;2024-02-23T15:45:10;3.50;;;1.40;;
16820;SDS011;8527;49.740;6.604;2024-02-23T15:50:11;3.65;;;1.05;;
16820;SDS011;8527;49.740;6.604;2024-02-23T15:55:09;3.38;;;1.15;;
16820;SDS011;8527;49.740;6.604;2024-02-23T16:00:10;2.63;;;0.98;;
16820;SDS011;8527;49.740;6.604;2024-02-23T16:05:11;2.13;;;0.82;;
16820;SDS011;8527;49.740;6.604;2024-02-23T16:10:10;2.13;;;0.70;;
16820;SDS011;8527;49.740;6.604;2024-02-23T16:15:10;2.97;;;0.60;;
16820;SDS011;8527;49.740;6.604;2024-02-23T16:20:14;2.38;;;0.80;;
16820;SDS011;8527;49.740;6.604;2024-02-23T16:25:13;1.88;;;1.13;;
16820;SDS011;8527;49.740;6.604;2024-02-23T16:30:13;3.67;;;1.60;;
16820;SDS011;8527;49.740;6.604;2024-02-23T16:35:15;2.78;;;1.50;;
16820;SDS011;8527;49.740;6.604;2024-02-23T16:40:20;4.28;;;2.45;;
16820;SDS011;8527;49.740;6.604;2024-02-23T16:45:23;5.95;;;3.05;;
16820;SDS011;8527;49.740;6.604;2024-02-23T16:50:27;6.00;;;2.63;;
16820;SDS011;8527;49.740;6.604;2024-02-23T16:55:29;4.00;;;2.85;;
16820;SDS011;8527;49.740;6.604;2024-02-23T17:00:28;2.55;;;1.08;;
16820;SDS011;8527;49.740;6.604;2024-02-23T17:05:29;3.33;;;1.00;;
16820;SDS011;8527;49.740;6.604;2024-02-23T17:10:27;1.95;;;0.88;;
16820;SDS011;8527;49.740;6.604;2024-02-23T17:15:28;2.45;;;1.08;;
16820;SDS011;8527;49.740;6.604;2024-02-23T17:20:29;2.78;;;0.88;;
16820;SDS011;8527;49.740;6.604;2024-02-23T17:25:31;2.05;;;0.80;;
16820;SDS011;8527;49.740;6.604;2024-02-23T17:30:34;2.17;;;0.93;;
16820;SDS011;8527;49.740;6.604;2024-02-23T17:35:36;2.85;;;1.70;;
16820;SDS011;8527;49.740;6.604;2024-02-23T17:40:34;2.25;;;1.50;;
16820;SDS011;8527;49.740;6.604;2024-02-23T17:45:37;2.25;;;1.20;;
16820;SDS011;8527;49.740;6.604;2024-02-23T17:50:45;2.35;;;0.85;;
16820;SDS011;8527;49.740;6.604;2024-02-23T17:55:43;1.20;;;1.10;;
16820;SDS011;8527;49.740;6.604;2024-02-23T18:00:42;4.55;;;1.33;;
16820;SDS011;8527;49.740;6.604;2024-02-23T18:05:44;2.85;;;1.20;;
16820;SDS011;8527;49.740;6.604;2024-02-23T18:10:42;4.85;;;2.05;;
16820;SDS011;8527;49.740;6.604;2024-02-23T18:15:41;4.40;;;1.90;;
16820;SDS011;8527;49.740;6.604;2024-02-23T18:20:40;3.60;;;1.75;;
16820;SDS011;8527;49.740;6.604;2024-02-23T18:25:41;3.63;;;2.10;;
16820;SDS011;8527;49.740;6.604;2024-02-23T18:30:40;3.20;;;1.65;;
16820;SDS011;8527;49.740;6.604;2024-02-23T18:35:39;2.25;;;0.90;;
16820;SDS011;8527;49.740;6.604;2024-02-23T18:40:37;1.17;;;1.13;;
16820;SDS011;8527;49.740;6.604;2024-02-23T18:45:46;4.97;;;2.40;;
16820;SDS011;8527;49.740;6.604;2024-02-23T18:50:45;3.90;;;1.73;;
16820;SDS011;8527;49.740;6.604;2024-02-23T18:55:43;2.42;;;2.22;;
16820;SDS011;8527;49.740;6.604;2024-02-23T19:00:44;3.35;;;1.25;;
16820;SDS011;8527;49.740;6.604;2024-02-23T19:06:02;2.65;;;1.25;;
16820;SDS011;8527;49.740;6.604;2024-02-23T19:11:08;2.08;;;1.77;;
16820;SDS011;8527;49.740;6.604;2024-02-23T19:16:13;1.90;;;1.20;;
16820;SDS011;8527;49.740;6.604;2024-02-23T19:21:14;4.15;;;1.98;;
16820;SDS011;8527;49.740;6.604;2024-02-23T19:26:13;4.07;;;1.80;;
16820;SDS011;8527;49.740;6.604;2024-02-23T19:31:15;4.70;;;2.20;;
16820;SDS011;8527;49.740;6.604;2024-02-23T19:36:16;3.50;;;1.55;;
16820;SDS011;8527;49.740;6.604;2024-02-23T19:41:16;4.80;;;1.35;;
16820;SDS011;8527;49.740;6.604;2024-02-23T19:46:17;5.13;;;0.93;;
16820;SDS011;8527;49.740;6.604;2024-02-23T19:51:18;1.13;;;0.90;;
16820;SDS011;8527;49.740;6.604;2024-02-23T19:56:16;1.25;;;0.70;;
16820;SDS011;8527;49.740;6.604;2024-02-23T20:01:18;2.97;;;1.08;;
16820;SDS011;8527;49.740;6.604;2024-02-23T20:06:16;1.85;;;1.05;;
16820;SDS011;8527;49.740;6.604;2024-02-23T20:11:17;0.80;;;0.40;;
16820;SDS011;8527;49.740;6.604;2024-02-23T20:16:19;0.55;;;0.40;;
16820;SDS011;8527;49.740;6.604;2024-02-23T20:21:18;0.60;;;0.60;;
16820;SDS011;8527;49.740;6.604;2024-02-23T20:26:18;1.02;;;0.70;;
16820;SDS011;8527;49.740;6.604;2024-02-23T20:31:20;3.40;;;0.80;;
16820;SDS011;8527;49.740;6.604;2024-02-23T20:36:22;3.30;;;1.40;;
16820;SDS011;8527;49.740;6.604;2024-02-23T20:41:20;1.30;;;0.50;;
16820;SDS011;8527;49.740;6.604;2024-02-23T20:46:23;2.40;;;0.80;;
16820;SDS011;8527;49.740;6.604;2024-02-23T20:51:23;1.70;;;0.75;;
16820;SDS011;8527;49.740;6.604;2024-02-23T20:56:24;1.65;;;0.65;;
16820;SDS011;8527;49.740;6.604;2024-02-23T21:01:30;1.08;;;0.80;;
16820;SDS011;8527;49.740;6.604;2024-02-23T21:06:28;4.25;;;0.77;;
16820;SDS011;8527;49.740;6.604;2024-02-23T21:11:28;0.90;;;0.82;;
16820;SDS011;8527;49.740;6.604;2024-02-23T21:16:33;0.75;;;0.57;;
16820;SDS011;8527;49.740;6.604;2024-02-23T21:21:33;1.58;;;0.70;;
16820;SDS011;8527;49.740;6.604;2024-02-23T21:26:34;2.25;;;1.80;;
16820;SDS011;8527;49.740;6.604;2024-02-23T21:31:36;2.20;;;1.00;;
16820;SDS011;8527;49.740;6.604;2024-02-23T21:36:37;1.50;;;0.70;;
16820;SDS011;8527;49.740;6.604;2024-02-23T21:41:36;1.67;;;0.88;;
16820;SDS011;8527;49.740;6.604;2024-02-23T21:46:38;1.15;;;1.00;;
16820;SDS011;8527;49.740;6.604;2024-02-23T21:51:39;2.70;;;1.58;;
16820;SDS011;8527;49.740;6.604;2024-02-23T21:56:38;2.08;;;1.45;;
16820;SDS011;8527;49.740;6.604;2024-02-23T22:01:39;1.17;;;1.13;;
16820;SDS011;8527;49.740;6.604;2024-02-23T22:06:40;2.25;;;1.60;;
16820;SDS011;8527;49.740;6.604;2024-02-23T22:11:41;2.70;;;1.27;;
16820;SDS011;8527;49.740;6.604;2024-02-23T22:16:42;3.85;;;1.13;;
16820;SDS011;8527;49.740;6.604;2024-02-23T22:21:41;0.85;;;0.82;;
16820;SDS011;8527;49.740;6.604;2024-02-23T22:26:40;1.92;;;1.00;;
16820;SDS011;8527;49.740;6.604;2024-02-23T22:31:46;2.00;;;1.00;;
16820;SDS011;8527;49.740;6.604;2024-02-23T22:36:45;1.90;;;0.80;;
16820;SDS011;8527;49.740;6.604;2024-02-23T22:41:44;1.52;;;0.98;;
16820;SDS011;8527;49.740;6.604;2024-02-23T22:46:42;0.52;;;0.47;;
16820;SDS011;8527;49.740;6.604;2024-02-23T22:51:44;1.38;;;0.80;;
16820;SDS011;8527;49.740;6.604;2024-02-23T22:56:43;0.70;;;0.68;;
16820;SDS011;8527;49.740;6.604;2024-02-23T23:01:47;2.47;;;1.00;;
16820;SDS011;8527;49.740;6.604;2024-02-23T23:06:49;2.70;;;1.02;;
16820;SDS011;8527;49.740;6.604;2024-02-23T23:11:50;0.88;;;0.70;;
16820;SDS011;8527;49.740;6.604;2024-02-23T23:16:53;0.98;;;0.88;;
16820;SDS011;8527;49.740;6.604;2024-02-23T23:21:54;1.17;;;0.75;;
16820;SDS011;8527;49.740;6.604;2024-02-23T23:26:55;1.00;;;0.90;;
16820;SDS011;8527;49.740;6.604;2024-02-23T23:31:59;1.48;;;0.80;;
16820;SDS011;8527;49.740;6.604;2024-02-23T23:36:59;1.00;;;0.80;;
16820;SDS011;8527;49.740;6.604;2024-02-23T23:42:00;1.73;;;0.82;;
16820;SDS011;8527;49.740;6.604;2024-02-23T23:47:01;0.90;;;0.55;;
16820;SDS011;8527;49.740;6.604;2024-02-23T23:51:59;1.05;;;0.52;;
16820;SDS011;8527;49.740;6.604;2024-02-23T23:56:58;0.60;;;0.60;;
